createdAt,value
2023-10-14T00:00:37.057Z,99523.16
2023-10-14T00:02:53.457Z,99539.09
2023-10-14T00:05:02.277Z,99531.28
2023-10-14T00:07:01.367Z,99536.31
2023-10-14T00:08:59.552Z,99525.97
2023-10-14T00:10:58.073Z,99525.88
2023-10-14T00:12:57.211Z,99519.81
2023-10-14T00:15:06.615Z,99510.09
2023-10-14T00:17:00.392Z,99511.25
2023-10-14T00:18:57.141Z,99516.13
2023-10-14T00:20:53.284Z,99508.34
2023-10-14T00:22:58.000Z,99509.84
2023-10-14T00:25:00.446Z,99523.94
2023-10-14T00:26:56.550Z,99521.25
2023-10-14T00:29:13.569Z,99514.13
2023-10-14T00:31:08.568Z,99512.78
2023-10-14T00:33:04.958Z,99512.53
2023-10-14T00:35:31.733Z,99509.28
2023-10-14T00:37:54.740Z,99513.47
2023-10-14T00:40:02.634Z,99500.31
2023-10-14T00:42:09.846Z,99527.97
2023-10-14T00:44:09.157Z,99514.88
2023-10-14T00:46:02.988Z,99517.09
2023-10-14T00:48:00.974Z,99508.78
2023-10-14T00:49:56.731Z,99488.94
2023-10-14T00:51:54.293Z,99479.78
2023-10-14T00:53:53.638Z,99481.88
2023-10-14T00:55:56.577Z,99469.53
2023-10-14T00:57:55.931Z,99474.41
2023-10-14T00:59:56.151Z,99458.41
2023-10-14T01:01:57.033Z,99462.88
2023-10-14T01:03:52.645Z,99470.41
2023-10-14T01:05:47.005Z,99467.41
2023-10-14T01:07:42.435Z,99460.00
2023-10-14T01:09:54.092Z,99455.06
2023-10-14T01:11:49.897Z,99452.25
2023-10-14T01:13:45.993Z,99446.25
2023-10-14T01:15:50.032Z,99448.47
2023-10-14T01:17:45.962Z,99430.72
2023-10-14T01:19:38.998Z,99433.25
2023-10-14T01:21:39.772Z,99436.28
2023-10-14T01:23:36.884Z,99448.72
2023-10-14T01:25:33.332Z,99425.16
2023-10-14T01:27:35.611Z,99406.63
2023-10-14T01:29:40.308Z,99403.72
2023-10-14T01:31:54.066Z,99395.84
2023-10-14T01:33:49.743Z,99387.63
2023-10-14T01:35:46.978Z,99380.09
2023-10-14T01:37:40.491Z,99369.88
2023-10-14T01:39:47.501Z,99356.09
2023-10-14T01:41:43.044Z,99353.06
2023-10-14T01:43:38.215Z,99349.94
2023-10-14T01:45:36.588Z,99357.94
2023-10-14T01:47:33.890Z,99350.63
2023-10-14T01:49:29.472Z,99362.56
2023-10-14T01:51:26.622Z,99370.34
2023-10-14T01:53:24.634Z,99363.25
2023-10-14T01:55:23.286Z,99357.34
2023-10-14T01:57:18.984Z,99357.00
2023-10-14T01:59:14.549Z,99350.16
2023-10-14T02:01:14.981Z,99350.06
2023-10-14T02:03:12.322Z,99321.31
2023-10-14T02:05:08.788Z,99318.63
2023-10-14T02:07:19.327Z,99329.16
2023-10-14T02:09:18.443Z,99308.66
2023-10-14T02:11:13.709Z,99304.38
2023-10-14T02:13:09.289Z,99289.16
2023-10-14T02:15:04.896Z,99295.09
2023-10-14T02:17:01.680Z,99278.88
2023-10-14T02:19:17.833Z,99293.47
2023-10-14T02:21:18.099Z,99271.69
2023-10-14T02:23:12.432Z,99291.25
2023-10-14T02:25:14.638Z,99283.25
2023-10-14T02:27:14.866Z,99285.59
2023-10-14T02:29:12.675Z,99290.56
2023-10-14T02:31:11.868Z,99295.91
2023-10-14T02:33:08.569Z,99292.19
2023-10-14T02:35:03.872Z,99289.31
2023-10-14T02:37:02.982Z,99295.44
2023-10-14T02:38:56.832Z,99281.72
2023-10-14T02:40:53.313Z,99284.75
2023-10-14T02:42:51.854Z,99280.59
2023-10-14T02:44:48.100Z,99284.09
2023-10-14T02:46:47.021Z,99269.72
2023-10-14T02:48:56.700Z,99264.94
2023-10-14T02:50:53.002Z,99279.66
2023-10-14T02:52:50.462Z,99262.03
2023-10-14T02:54:56.097Z,99270.50
2023-10-14T02:56:57.637Z,99266.31
2023-10-14T02:58:56.260Z,99269.81
2023-10-14T03:01:00.886Z,99270.59
2023-10-14T03:03:03.814Z,99263.41
2023-10-14T03:05:21.833Z,99282.66
2023-10-14T03:07:22.958Z,99265.38
2023-10-14T03:09:20.701Z,99262.72
2023-10-14T03:11:23.208Z,99257.59
2023-10-14T03:13:20.411Z,99256.47
2023-10-14T03:15:20.529Z,99255.63
2023-10-14T03:17:18.772Z,99262.75
2023-10-14T03:19:17.552Z,99255.78
2023-10-14T03:21:23.959Z,99238.97
2023-10-14T03:23:24.369Z,99250.69
2023-10-14T03:25:24.338Z,99247.88
2023-10-14T03:27:19.509Z,99252.88
2023-10-14T03:29:17.704Z,99250.44
2023-10-14T03:31:18.603Z,99248.56
2023-10-14T03:33:15.300Z,99241.63
2023-10-14T03:35:13.648Z,99250.66
2023-10-14T03:37:20.102Z,99242.44
2023-10-14T03:39:23.304Z,99241.41
2023-10-14T03:41:22.840Z,99242.53
2023-10-14T03:43:17.030Z,99235.59
2023-10-14T03:45:21.852Z,99236.38
2023-10-14T03:47:20.378Z,99239.31
2023-10-14T03:49:22.694Z,99219.00
2023-10-14T03:51:24.170Z,99219.00
2023-10-14T03:53:19.547Z,99216.34
2023-10-14T03:55:14.049Z,99219.22
2023-10-14T03:57:15.887Z,99224.81
2023-10-14T03:59:13.304Z,99216.00
2023-10-14T04:01:08.615Z,99220.53
2023-10-14T04:03:05.395Z,99218.44
2023-10-14T04:05:09.834Z,99208.34
2023-10-14T04:07:17.508Z,99215.03
2023-10-14T04:09:26.098Z,99206.81
2023-10-14T04:11:26.884Z,99203.66
2023-10-14T04:13:23.337Z,99202.44
2023-10-14T04:15:35.509Z,99206.00
2023-10-14T04:17:31.885Z,99194.53
2023-10-14T04:19:45.659Z,99180.44
2023-10-14T04:21:38.573Z,99198.06
2023-10-14T04:23:39.518Z,99184.03
2023-10-14T04:25:40.854Z,99189.38
2023-10-14T04:27:36.793Z,99199.25
2023-10-14T04:29:40.413Z,99197.38
2023-10-14T04:31:43.003Z,99195.53
2023-10-14T04:33:46.014Z,99192.75
2023-10-14T04:35:58.471Z,99184.16
2023-10-14T04:37:58.856Z,99193.78
2023-10-14T04:39:59.922Z,99194.63
2023-10-14T04:42:23.302Z,99180.69
2023-10-14T04:44:22.539Z,99182.81
2023-10-14T04:46:17.741Z,99196.13
2023-10-14T04:48:13.744Z,99174.78
2023-10-14T04:50:11.876Z,99177.47
2023-10-14T04:52:10.911Z,99176.06
2023-10-14T04:54:03.609Z,99168.53
2023-10-14T04:56:02.385Z,99173.66
2023-10-14T04:58:10.564Z,99163.66
2023-10-14T05:00:09.767Z,99169.59
2023-10-14T05:02:05.286Z,99174.13
2023-10-14T05:04:01.588Z,99184.31
2023-10-14T05:05:57.655Z,99206.81
2023-10-14T05:07:52.892Z,99217.72
2023-10-14T05:09:57.326Z,99249.75
2023-10-14T05:11:53.384Z,99296.94
2023-10-14T05:13:55.405Z,99305.19
2023-10-14T05:15:54.771Z,99294.09
2023-10-14T05:17:54.228Z,99307.75
2023-10-14T05:19:49.542Z,99315.97
2023-10-14T05:21:46.616Z,99327.13
2023-10-14T05:23:45.418Z,99331.31
2023-10-14T05:25:40.422Z,99333.34
2023-10-14T05:27:47.816Z,99343.84
2023-10-14T05:29:43.254Z,99358.88
2023-10-14T05:31:38.482Z,99362.94
2023-10-14T05:33:35.279Z,99376.22
2023-10-14T05:35:30.173Z,99391.97
2023-10-14T05:37:26.976Z,99384.06
2023-10-14T05:39:28.005Z,99391.97
2023-10-14T05:43:39.179Z,99398.00
2023-10-14T05:45:38.394Z,99403.94
2023-10-14T05:47:34.261Z,99412.13
2023-10-14T05:49:29.568Z,99412.72
2023-10-14T05:51:24.701Z,99399.28
2023-10-14T05:53:21.046Z,99416.47
2023-10-14T05:55:21.682Z,99411.16
2023-10-14T05:57:18.429Z,99425.69
2023-10-14T05:59:14.191Z,99458.91
2023-10-14T06:01:13.236Z,99501.50
2023-10-14T06:03:12.618Z,99504.63
2023-10-14T06:05:08.583Z,99530.50
2023-10-14T06:07:04.500Z,99550.97
2023-10-14T06:09:01.834Z,99549.34
2023-10-14T06:11:00.641Z,99578.94
2023-10-14T06:12:57.831Z,99580.97
2023-10-14T06:14:51.007Z,99585.03
2023-10-14T06:16:46.579Z,99591.13
2023-10-14T06:18:45.413Z,99589.31
2023-10-14T06:20:42.509Z,99594.19
2023-10-14T06:22:37.767Z,99603.56
2023-10-14T06:24:34.832Z,99618.63
2023-10-14T06:26:33.007Z,99640.22
2023-10-14T06:28:29.495Z,99642.81
2023-10-14T06:30:22.670Z,99646.13
2023-10-14T06:32:21.342Z,99652.25
2023-10-14T06:34:17.644Z,99654.72
2023-10-14T06:36:15.548Z,99673.19
2023-10-14T06:38:11.295Z,99683.56
2023-10-14T06:40:12.472Z,99681.34
2023-10-14T06:42:13.732Z,99688.09
2023-10-14T06:44:10.138Z,99688.06
2023-10-14T06:46:06.456Z,99703.44
2023-10-14T06:47:59.543Z,99693.66
2023-10-14T06:49:55.562Z,99701.84
2023-10-14T06:51:52.738Z,99729.69
2023-10-14T06:53:49.523Z,99719.50
2023-10-14T06:55:42.733Z,99721.44
2023-10-14T06:57:43.640Z,99723.38
2023-10-14T06:59:40.164Z,99733.25
2023-10-14T07:01:36.067Z,99747.00
2023-10-14T07:03:32.612Z,99769.81
2023-10-14T07:05:25.275Z,99778.03
2023-10-14T07:07:21.085Z,99774.56
2023-10-14T07:09:24.577Z,99772.09
2023-10-14T07:11:19.846Z,99748.13
2023-10-14T07:13:15.657Z,99757.78
2023-10-14T07:15:14.157Z,99751.13
2023-10-14T07:17:09.950Z,99760.97
2023-10-14T07:19:05.917Z,99751.34
2023-10-14T07:21:02.711Z,99769.81
2023-10-14T07:22:55.927Z,99761.56
2023-10-14T07:24:51.380Z,99766.91
2023-10-14T07:26:46.648Z,99779.22
2023-10-14T07:28:52.930Z,99753.13
2023-10-14T07:30:51.418Z,99766.47
2023-10-14T07:32:45.334Z,99797.81
2023-10-14T07:34:40.595Z,99795.16
2023-10-14T07:36:35.785Z,99793.19
2023-10-14T07:38:32.514Z,99786.88
2023-10-14T07:40:25.170Z,99789.13
2023-10-14T07:42:20.263Z,99787.88
2023-10-14T07:44:18.494Z,99804.56
2023-10-14T07:46:13.753Z,99810.44
2023-10-14T07:48:12.721Z,99814.53
2023-10-14T07:50:10.626Z,99806.59
2023-10-14T07:52:07.741Z,99803.47
2023-10-14T07:54:03.613Z,99814.88
2023-10-14T07:55:59.535Z,99818.78
2023-10-14T07:57:53.205Z,99833.66
2023-10-14T07:59:52.546Z,99843.28
2023-10-14T08:01:49.163Z,99861.91
2023-10-14T08:03:44.872Z,99868.09
2023-10-14T08:05:41.911Z,99877.88
2023-10-14T08:07:41.801Z,99874.63
2023-10-14T08:09:40.822Z,99875.06
2023-10-14T08:11:39.630Z,99869.69
2023-10-14T08:13:37.526Z,99869.97
2023-10-14T08:15:40.314Z,99861.78
2023-10-14T08:18:18.591Z,99867.19
2023-10-14T08:20:39.798Z,99865.44
2023-10-14T08:22:35.630Z,99876.28
2023-10-14T08:24:31.356Z,99880.22
2023-10-14T08:26:27.632Z,99882.88
2023-10-14T08:28:23.732Z,99890.78
2023-10-14T08:30:21.043Z,99891.13
2023-10-14T08:32:21.137Z,99895.13
2023-10-14T08:34:16.961Z,99891.34
2023-10-14T08:36:09.877Z,99891.91
2023-10-14T08:38:11.675Z,99898.94
2023-10-14T08:40:09.104Z,99890.63
2023-10-14T08:42:07.651Z,99897.56
2023-10-14T08:44:10.249Z,99903.19
2023-10-14T08:46:07.438Z,99912.56
2023-10-14T08:48:07.072Z,99910.03
2023-10-14T08:50:01.522Z,99921.44
2023-10-14T08:51:57.369Z,99910.88
2023-10-14T08:53:55.430Z,99923.75
2023-10-14T08:55:53.611Z,99922.59
2023-10-14T08:57:46.587Z,99936.22
2023-10-14T08:59:45.735Z,99935.00
2023-10-14T09:01:43.255Z,99943.19
2023-10-14T09:03:41.822Z,99950.28
2023-10-14T09:05:41.365Z,99953.03
2023-10-14T09:07:34.816Z,99958.19
2023-10-14T09:09:29.953Z,99965.94
2023-10-14T09:11:34.542Z,99980.56
2023-10-14T09:13:35.099Z,99982.94
2023-10-14T09:15:29.591Z,99987.72
2023-10-14T09:17:24.886Z,99995.09
2023-10-14T09:19:25.426Z,99988.81
2023-10-14T09:21:21.986Z,99998.47
2023-10-14T09:23:17.207Z,100000.28
2023-10-14T09:25:15.415Z,99999.63
2023-10-14T09:27:12.721Z,100009.47
2023-10-14T09:29:11.892Z,100005.81
2023-10-14T09:31:14.361Z,100002.53
2023-10-14T09:33:11.240Z,100002.53
2023-10-14T09:35:12.958Z,100006.06
2023-10-14T09:37:12.733Z,100018.28
2023-10-14T09:39:15.880Z,100026.47
2023-10-14T09:41:16.133Z,100014.56
2023-10-14T09:43:14.960Z,100026.25
2023-10-14T09:45:15.651Z,100019.66
2023-10-14T09:47:13.835Z,100015.88
2023-10-14T09:49:12.058Z,100025.00
2023-10-14T09:51:13.910Z,100022.41
2023-10-14T09:53:08.439Z,100026.56
2023-10-14T09:55:11.441Z,100041.84
2023-10-14T09:57:11.819Z,100063.47
2023-10-14T09:59:11.389Z,100051.38
2023-10-14T10:01:09.964Z,100058.44
2023-10-14T10:03:08.312Z,100055.22
2023-10-14T10:05:08.614Z,100058.13
2023-10-14T10:07:19.412Z,100046.22
2023-10-14T10:09:51.377Z,100060.72
2023-10-14T10:12:27.052Z,100064.34
2023-10-14T10:17:33.669Z,100076.66
2023-10-14T10:20:03.710Z,100070.94
2023-10-14T10:22:21.901Z,100068.72
2023-10-14T10:24:26.795Z,100076.25
2023-10-14T10:26:20.512Z,100084.75
2023-10-14T10:28:40.320Z,100101.28
2023-10-14T10:30:48.664Z,100078.34
2023-10-14T10:32:48.264Z,100078.97
2023-10-14T10:35:18.442Z,100083.84
2023-10-14T10:37:26.847Z,100088.47
2023-10-14T10:39:22.763Z,100102.00
2023-10-14T10:41:19.559Z,100094.19
2023-10-14T10:43:20.456Z,100093.56
2023-10-14T10:45:29.196Z,100094.22
2023-10-14T10:47:48.128Z,100109.97
2023-10-14T10:50:15.951Z,100096.91
2023-10-14T10:52:18.361Z,100097.50
2023-10-14T10:54:23.862Z,100120.03
2023-10-14T11:02:45.425Z,100122.19
2023-10-14T11:05:22.994Z,100109.91
2023-10-14T11:11:44.778Z,100123.69
2023-10-14T12:13:05.017Z,100167.03
2023-10-14T12:35:45.858Z,100194.06
2023-10-14T12:37:42.282Z,100185.00
2023-10-14T12:39:45.444Z,100189.50
2023-10-14T12:41:41.767Z,100192.53
2023-10-14T12:43:38.724Z,100199.66
2023-10-14T12:45:31.370Z,100217.28
2023-10-14T12:47:28.708Z,100208.47
2023-10-14T12:49:22.065Z,100218.16
2023-10-14T12:51:26.901Z,100212.56
2023-10-14T12:53:22.817Z,100199.63
2023-10-14T12:55:20.794Z,100207.91
2023-10-14T12:57:16.218Z,100227.00
2023-10-14T12:59:14.224Z,100232.31
2023-10-14T13:01:14.922Z,100232.72
2023-10-14T13:03:13.443Z,100218.97
2023-10-14T13:05:15.220Z,100218.19
2023-10-14T13:07:14.120Z,100223.63
2023-10-14T13:09:12.802Z,100218.63
2023-10-14T13:11:08.529Z,100220.38
2023-10-14T13:13:02.056Z,100210.97
2023-10-14T13:14:58.951Z,100212.63
2023-10-14T13:16:54.638Z,100215.13
2023-10-14T13:18:51.168Z,100219.81
2023-10-14T13:20:51.243Z,100227.38
2023-10-14T13:27:04.159Z,100222.25
2023-10-14T13:29:06.699Z,100218.16
2023-10-14T13:31:06.147Z,100212.16
2023-10-14T13:33:00.106Z,100226.34
2023-10-14T13:34:58.536Z,100226.09
2023-10-14T13:36:58.524Z,100234.78
2023-10-14T13:38:57.331Z,100231.88
2023-10-14T13:40:54.659Z,100234.75
2023-10-14T13:42:47.508Z,100226.38
2023-10-14T13:44:42.608Z,100232.53
2023-10-14T13:46:38.113Z,100237.00
2023-10-14T13:48:33.337Z,100245.06
2023-10-14T13:50:26.518Z,100247.25
2023-10-14T13:52:21.942Z,100236.69
2023-10-14T13:54:20.144Z,100234.03
2023-10-14T13:56:16.127Z,100242.00
2023-10-14T13:58:12.811Z,100242.56
2023-10-14T14:00:10.056Z,100247.16
2023-10-14T14:02:07.783Z,100239.94
2023-10-14T14:04:02.873Z,100257.09
2023-10-14T14:06:00.982Z,100269.41
2023-10-14T14:07:56.868Z,100248.06
2023-10-14T14:09:57.799Z,100243.78
2023-10-14T14:22:30.448Z,100242.41
2023-10-14T14:25:15.291Z,100253.28
2023-10-14T15:01:49.659Z,100277.75
2023-10-14T15:04:27.090Z,100272.00
2023-10-14T15:18:50.578Z,100271.91
2023-10-14T15:19:21.447Z,100282.16
2023-10-14T15:22:33.462Z,100284.22
2023-10-14T15:26:12.991Z,100290.31
2023-10-14T15:28:43.147Z,100296.78
2023-10-14T15:31:40.926Z,100295.94
2023-10-14T15:34:01.539Z,100301.72
2023-10-14T15:37:04.055Z,100302.25
2023-10-14T15:39:47.123Z,100301.63
2023-10-14T15:43:37.746Z,100309.22
2023-10-14T15:46:30.470Z,100296.09
2023-10-14T15:55:38.602Z,100302.06
2023-10-14T15:57:34.498Z,100311.47
2023-10-14T15:59:32.001Z,100320.44
2023-10-14T16:01:35.075Z,100331.59
2023-10-14T16:03:33.949Z,100331.06
2023-10-14T16:05:42.981Z,100335.63
2023-10-14T16:07:40.422Z,100343.25
2023-10-14T16:09:38.634Z,100349.38
2023-10-14T16:11:35.486Z,100345.00
2023-10-14T16:13:32.559Z,100347.66
2023-10-14T16:15:31.257Z,100347.38
2023-10-14T16:17:25.179Z,100355.91
2023-10-14T16:19:21.030Z,100358.03
2023-10-14T16:21:17.545Z,100356.66
2023-10-14T16:23:13.799Z,100363.38
2023-10-14T16:25:10.560Z,100361.00
2023-10-14T16:27:08.344Z,100368.75
2023-10-14T16:29:10.158Z,100377.19
2023-10-14T16:31:05.841Z,100378.31
2023-10-14T16:33:03.818Z,100397.63
2023-10-14T16:35:07.792Z,100400.09
2023-10-14T16:37:08.169Z,100396.56
2023-10-14T16:39:02.125Z,100403.84
2023-10-14T16:40:58.826Z,100423.44
2023-10-14T16:42:59.340Z,100434.31
2023-10-14T16:44:55.101Z,100425.66
2023-10-14T16:46:50.620Z,100419.53
2023-10-14T16:48:49.165Z,100417.44
2023-10-14T16:50:49.218Z,100428.88
2023-10-14T16:52:46.360Z,100422.53
2023-10-14T16:54:43.864Z,100425.13
2023-10-14T17:00:40.072Z,100415.16
2023-10-14T17:03:23.894Z,100422.63
2023-10-14T17:05:25.662Z,100426.78
2023-10-14T17:07:23.343Z,100424.81
2023-10-14T17:09:25.975Z,100426.84
2023-10-14T17:11:28.454Z,100422.84
2023-10-14T17:13:39.576Z,100427.31
2023-10-14T17:15:38.703Z,100428.88
2023-10-14T17:17:42.879Z,100428.56
2023-10-14T17:19:58.469Z,100425.88
2023-10-14T17:22:55.102Z,100433.84
2023-10-14T17:25:04.585Z,100430.69
2023-10-14T17:27:01.344Z,100438.44
2023-10-14T17:28:58.337Z,100436.31
2023-10-14T17:30:52.500Z,100445.06
2023-10-14T17:32:47.840Z,100438.28
2023-10-14T17:34:45.620Z,100437.97
2023-10-14T17:36:42.241Z,100436.13
2023-10-14T17:38:37.630Z,100438.41
2023-10-14T17:40:39.851Z,100446.19
2023-10-14T17:42:34.085Z,100448.16
2023-10-14T17:44:32.395Z,100446.31
2023-10-14T17:47:02.667Z,100459.00
2023-10-14T17:49:11.641Z,100446.03
2023-10-14T17:51:10.434Z,100453.03
2023-10-14T17:53:11.078Z,100455.72
2023-10-14T17:55:15.512Z,100459.72
2023-10-14T17:57:13.636Z,100455.72
2023-10-14T17:59:10.568Z,100458.16
2023-10-14T18:04:13.610Z,100457.81
2023-10-14T18:04:37.611Z,100453.06
2023-10-14T18:06:42.176Z,100458.53
2023-10-14T18:08:51.364Z,100454.25
2023-10-14T18:10:55.077Z,100468.44
2023-10-14T18:12:58.232Z,100465.91
2023-10-14T18:14:55.807Z,100473.97
2023-10-14T18:17:03.174Z,100482.00
2023-10-14T18:18:59.906Z,100485.38
2023-10-14T18:20:53.406Z,100475.59
2023-10-14T18:22:52.737Z,100488.16
2023-10-14T18:25:02.898Z,100483.34
2023-10-14T18:26:59.236Z,100489.69
2023-10-14T18:28:58.314Z,100485.38
2023-10-14T18:30:57.514Z,100483.63
2023-10-14T18:33:07.873Z,100504.09
2023-10-14T18:35:14.008Z,100491.00
2023-10-14T18:37:09.773Z,100492.31
2023-10-14T18:39:12.130Z,100502.00
2023-10-14T18:41:13.150Z,100500.34
2023-10-14T18:43:17.922Z,100499.84
2023-10-14T18:45:18.796Z,100495.75
2023-10-14T18:47:16.221Z,100510.47
2023-10-14T18:49:13.423Z,100507.19
2023-10-14T18:51:23.767Z,100514.63
2023-10-14T18:53:26.302Z,100512.66
2023-10-14T18:55:28.507Z,100505.50
2023-10-14T18:57:24.616Z,100506.81
2023-10-14T18:59:20.898Z,100522.72
2023-10-14T19:01:30.173Z,100518.72
2023-10-14T19:03:27.893Z,100518.72
2023-10-14T19:05:32.613Z,100519.22
2023-10-14T19:07:35.426Z,100521.56
2023-10-14T19:09:41.305Z,100525.00
2023-10-14T19:11:39.976Z,100527.63
2023-10-14T19:13:46.800Z,100531.94
2023-10-14T19:16:04.567Z,100523.13
2023-10-14T19:18:10.617Z,100521.06
2023-10-14T19:20:13.742Z,100527.31
2023-10-14T19:22:06.391Z,100528.44
2023-10-14T19:24:03.082Z,100532.22
2023-10-14T19:25:59.427Z,100536.63
2023-10-14T19:27:55.391Z,100530.66
2023-10-14T19:29:57.339Z,100532.03
2023-10-14T19:32:11.877Z,100534.13
2023-10-14T19:34:47.152Z,100536.22
2023-10-14T19:37:12.422Z,100537.97
2023-10-14T19:39:56.788Z,100539.97
2023-10-14T19:41:52.721Z,100545.94
2023-10-14T19:43:51.693Z,100543.97
2023-10-14T19:45:48.899Z,100545.69
2023-10-14T19:47:57.155Z,100552.84
2023-10-14T19:49:58.133Z,100558.81
2023-10-14T19:52:01.087Z,100552.81
2023-10-14T19:54:00.455Z,100553.63
2023-10-14T19:56:20.097Z,100563.72
2023-10-14T19:58:22.156Z,100563.13
2023-10-14T20:00:27.139Z,100566.50
2023-10-14T20:02:35.031Z,100563.06
2023-10-14T20:04:54.451Z,100565.91
2023-10-14T20:06:52.375Z,100568.09
2023-10-14T20:08:51.305Z,100572.16
2023-10-14T20:10:52.267Z,100567.97
2023-10-14T20:12:50.998Z,100568.63
2023-10-14T20:14:46.642Z,100565.47
2023-10-14T20:16:44.787Z,100575.16
2023-10-14T20:18:40.556Z,100562.38
2023-10-14T20:20:37.541Z,100573.59
2023-10-14T20:22:31.918Z,100570.59
2023-10-14T20:24:31.118Z,100572.75
2023-10-14T20:26:37.906Z,100576.00
2023-10-14T20:28:35.421Z,100577.72
2023-10-14T20:30:32.262Z,100583.53
2023-10-14T20:32:35.625Z,100568.75
2023-10-14T20:34:34.752Z,100573.59
2023-10-14T20:36:28.228Z,100572.81
2023-10-14T20:38:30.463Z,100570.41
2023-10-14T20:40:27.129Z,100575.94
2023-10-14T20:42:20.295Z,100576.06
2023-10-14T20:44:16.590Z,100581.34
2023-10-14T20:46:10.450Z,100585.44
2023-10-14T20:48:09.604Z,100589.25
2023-10-14T20:50:03.867Z,100581.81
2023-10-14T20:51:59.103Z,100578.88
2023-10-14T20:53:52.586Z,100589.72
2023-10-14T20:55:50.321Z,100591.75
2023-10-14T20:57:53.615Z,100602.44
2023-10-14T20:59:56.512Z,100595.28
2023-10-14T21:01:52.770Z,100591.44
2023-10-14T21:03:55.816Z,100600.31
2023-10-14T21:05:58.839Z,100592.84
2023-10-14T21:07:59.112Z,100594.50
2023-10-14T21:09:55.472Z,100592.03
2023-10-14T21:11:52.127Z,100587.75
2023-10-14T21:13:52.359Z,100601.66
2023-10-14T21:16:00.832Z,100583.66
2023-10-14T21:17:57.664Z,100588.78
2023-10-14T21:19:56.484Z,100583.28
2023-10-14T21:21:54.359Z,100608.25
2023-10-14T21:23:50.425Z,100586.34
2023-10-14T21:25:46.804Z,100595.78
2023-10-14T21:27:43.042Z,100584.81
2023-10-14T21:29:40.629Z,100575.22
2023-10-14T21:31:36.303Z,100579.06
2023-10-14T21:33:28.891Z,100582.53
2023-10-14T21:35:27.404Z,100569.13
2023-10-14T21:37:20.664Z,100572.19
2023-10-14T21:39:16.283Z,100586.50
2023-10-14T21:41:10.585Z,100574.16
2023-10-14T21:43:06.169Z,100571.00
2023-10-14T21:45:01.445Z,100577.25
2023-10-14T21:46:56.983Z,100571.44
2023-10-14T21:48:49.672Z,100584.22
2023-10-14T21:50:47.896Z,100577.81
2023-10-14T21:52:40.820Z,100571.72
2023-10-14T21:54:36.228Z,100582.09
2023-10-14T21:56:32.456Z,100581.59
2023-10-14T21:58:28.874Z,100585.88
2023-10-14T22:00:31.206Z,100576.06
2023-10-14T22:02:25.035Z,100579.81
2023-10-14T22:04:20.717Z,100579.69
2023-10-14T22:06:20.065Z,100576.19
2023-10-14T22:08:19.305Z,100591.88
2023-10-14T22:10:17.240Z,100581.63
2023-10-14T22:12:16.633Z,100574.63
2023-10-14T22:14:15.368Z,100592.22
2023-10-14T22:16:17.438Z,100576.03
2023-10-14T22:28:42.671Z,100583.28
2023-10-14T22:40:22.554Z,100596.06
2023-10-14T22:42:47.718Z,100600.50
2023-10-14T22:45:05.565Z,100588.19
2023-10-14T22:47:41.821Z,100579.50
2023-10-14T22:50:12.210Z,100583.78
2023-10-14T22:52:42.619Z,100584.31
2023-10-14T22:55:13.942Z,100583.63
2023-10-14T22:58:13.443Z,100580.63
2023-10-14T23:04:25.192Z,100590.16
2023-10-14T23:09:48.756Z,100604.44
2023-10-14T23:11:51.339Z,100595.72
2023-10-14T23:13:49.557Z,100583.72
2023-10-14T23:15:47.837Z,100597.94
2023-10-14T23:17:43.650Z,100601.41
2023-10-14T23:19:39.202Z,100597.09
2023-10-14T23:21:35.163Z,100601.97
2023-10-14T23:23:35.293Z,100595.91
2023-10-14T23:25:28.890Z,100589.09
2023-10-14T23:27:24.521Z,100592.00
2023-10-14T23:29:21.260Z,100589.66
2023-10-14T23:31:17.609Z,100596.47
2023-10-14T23:33:13.402Z,100585.09
2023-10-14T23:35:11.415Z,100589.50
2023-10-14T23:37:08.460Z,100586.44
2023-10-14T23:39:12.434Z,100596.28
2023-10-14T23:41:09.433Z,100600.72
2023-10-14T23:43:02.806Z,100595.31
2023-10-14T23:44:58.993Z,100589.63
2023-10-14T23:46:54.713Z,100588.94
2023-10-14T23:48:49.911Z,100606.25
2023-10-14T23:50:45.461Z,100595.19
2023-10-14T23:52:37.996Z,100590.59
2023-10-14T23:54:35.720Z,100614.25
2023-10-14T23:56:31.304Z,100595.47
2023-10-14T23:58:26.763Z,100602.09
